Time;durP1;ratioP1;P1;durP2;ratioP2;P2;SDS_P1;SDS_P2;PMS_P1;PMS_P2;Temp;Humidity;BMP_temperature;BMP_pressure;BME280_temperature;BME280_humidity;BME280_pressure;Samples;Min_cycle;Max_cycle;Signal;HPM_P1;HPM_P2
2021/06/06 00:00:15;;;;;;;2.72;1.30;;;15.20;84.80;;;;;;6193759;23;20035;-78
2021/06/06 00:02:42;;;;;;;1.73;1.10;;;15.20;84.80;;;;;;6246110;23;20012;-79
2021/06/06 00:05:10;;;;;;;2.00;1.17;;;15.10;84.70;;;;;;6217958;23;20341;-79
2021/06/06 00:07:36;;;;;;;1.60;1.20;;;15.10;84.80;;;;;;6218440;23;20000;-79
2021/06/06 00:10:04;;;;;;;2.55;1.27;;;15.10;84.80;;;;;;6244304;23;20012;-81
2021/06/06 00:12:30;;;;;;;0.90;0.70;;;15.10;84.80;;;;;;6242908;23;20065;-78
2021/06/06 00:14:56;;;;;;;1.83;1.23;;;15.10;84.80;;;;;;6244914;23;20004;-80
2021/06/06 00:17:22;;;;;;;2.35;1.40;;;15.20;84.90;;;;;;6246744;23;20015;-78
2021/06/06 00:19:48;;;;;;;1.70;1.27;;;15.10;84.80;;;;;;6245814;23;20314;-78
2021/06/06 00:22:13;;;;;;;2.58;1.15;;;15.10;84.80;;;;;;6242812;23;20053;-78
2021/06/06 00:24:39;;;;;;;1.42;1.08;;;15.00;84.80;;;;;;6242870;23;20016;-78
2021/06/06 00:27:07;;;;;;;2.05;1.17;;;15.20;85.00;;;;;;6216904;23;20008;-79
2021/06/06 00:29:33;;;;;;;1.80;1.27;;;15.10;85.00;;;;;;6242109;23;20063;-78
2021/06/06 00:31:59;;;;;;;1.38;1.13;;;15.10;85.00;;;;;;6216986;23;20122;-78
2021/06/06 00:34:26;;;;;;;3.08;1.42;;;15.10;85.00;;;;;;6193026;23;20004;-80
2021/06/06 00:36:52;;;;;;;1.95;1.25;;;15.10;84.90;;;;;;6249890;23;20003;-79
2021/06/06 00:39:18;;;;;;;3.10;1.55;;;15.00;84.90;;;;;;6242042;23;20012;-80
2021/06/06 00:41:45;;;;;;;1.40;1.13;;;15.10;85.10;;;;;;6243335;23;20000;-78
2021/06/06 00:44:11;;;;;;;2.53;1.33;;;15.20;85.10;;;;;;6250566;23;20075;-79
2021/06/06 00:46:38;;;;;;;2.13;1.20;;;15.00;85.60;;;;;;6239416;23;20036;-80
2021/06/06 00:49:06;;;;;;;1.77;1.30;;;15.00;85.00;;;;;;6216587;23;20447;-80
2021/06/06 00:51:52;;;;;;;3.42;1.55;;;15.10;85.20;;;;;;6243169;22;20012;-82
2021/06/06 00:54:31;;;;;;;2.92;1.10;;;15.10;85.20;;;;;;6243995;23;20012;-81
2021/06/06 00:57:03;;;;;;;2.80;1.67;;;15.10;85.10;;;;;;6242539;23;20005;-80
2021/06/06 00:59:31;;;;;;;2.53;1.38;;;15.00;85.70;;;;;;6244545;23;20012;-79
2021/06/06 01:01:57;;;;;;;3.30;1.40;;;15.00;85.10;;;;;;6243216;23;20451;-80
2021/06/06 01:04:23;;;;;;;1.75;0.98;;;15.00;85.10;;;;;;6244005;23;20012;-80
2021/06/06 01:06:52;;;;;;;1.65;1.20;;;15.00;85.20;;;;;;6216510;23;20016;-81
2021/06/06 01:09:22;;;;;;;1.88;1.20;;;15.00;85.10;;;;;;6243844;23;20008;-80
2021/06/06 01:11:59;;;;;;;1.95;1.27;;;15.00;85.10;;;;;;6216784;23;20340;-79
2021/06/06 01:14:39;;;;;;;3.35;1.50;;;15.00;85.10;;;;;;6216290;23;20328;-79
2021/06/06 01:17:14;;;;;;;3.17;1.40;;;15.00;85.20;;;;;;6216324;23;20020;-79
2021/06/06 01:19:49;;;;;;;2.88;1.50;;;15.10;85.20;;;;;;6243119;23;20614;-80
2021/06/06 01:22:45;;;;;;;2.28;1.30;;;15.10;85.10;;;;;;6243140;23;20012;-80
2021/06/06 01:25:28;;;;;;;2.35;1.27;;;15.00;85.10;;;;;;6243507;23;20027;-80
2021/06/06 01:28:17;;;;;;;1.73;1.00;;;15.10;85.10;;;;;;6241769;22;20011;-80
2021/06/06 01:30:48;;;;;;;3.22;1.20;;;15.10;85.10;;;;;;6241634;23;20016;-80
2021/06/06 01:33:31;;;;;;;1.55;1.17;;;15.10;85.00;;;;;;6214533;23;20005;-79
2021/06/06 01:36:04;;;;;;;1.98;1.23;;;15.10;85.00;;;;;;6241676;23;20004;-79
2021/06/06 01:38:38;;;;;;;2.30;1.20;;;15.10;85.00;;;;;;6243147;23;20000;-80
2021/06/06 01:41:10;;;;;;;2.42;1.30;;;15.10;85.10;;;;;;6244695;23;20004;-81
2021/06/06 01:43:40;;;;;;;1.90;1.10;;;15.20;85.20;;;;;;6218497;23;20035;-80
2021/06/06 01:46:12;;;;;;;1.27;0.98;;;15.00;85.10;;;;;;6218043;23;20008;-80
2021/06/06 01:48:40;;;;;;;1.85;1.15;;;15.10;85.20;;;;;;6217652;23;20023;-80
2021/06/06 01:51:09;;;;;;;1.67;1.17;;;15.00;85.20;;;;;;6244698;23;20341;-80
2021/06/06 01:53:36;;;;;;;1.65;1.02;;;15.00;85.20;;;;;;6192076;23;20008;-80
2021/06/06 01:56:06;;;;;;;1.48;1.10;;;15.00;85.20;;;;;;6193424;23;20012;-80
2021/06/06 01:58:33;;;;;;;1.67;1.00;;;15.00;85.30;;;;;;6245204;23;20108;-80
2021/06/06 02:01:07;;;;;;;1.17;0.80;;;15.00;85.30;;;;;;6243076;23;20016;-81
2021/06/06 02:03:33;;;;;;;2.28;0.90;;;15.00;85.30;;;;;;6218531;23;20498;-80
2021/06/06 02:05:59;;;;;;;3.67;1.50;;;15.10;85.30;;;;;;6217476;23;20061;-80
2021/06/06 02:08:31;;;;;;;2.15;1.00;;;15.00;85.30;;;;;;6217812;23;20020;-80
2021/06/06 02:11:01;;;;;;;2.53;1.35;;;15.00;85.30;;;;;;6243575;23;20020;-80
2021/06/06 02:13:40;;;;;;;1.65;1.13;;;15.10;85.40;;;;;;6217386;23;20150;-80
2021/06/06 02:16:06;;;;;;;1.58;1.00;;;15.00;85.40;;;;;;6245920;23;19996;-80
2021/06/06 02:18:33;;;;;;;1.98;1.10;;;15.00;85.30;;;;;;6246718;23;20419;-80
2021/06/06 02:20:59;;;;;;;2.20;1.15;;;15.00;85.30;;;;;;6193947;23;20058;-80
2021/06/06 02:23:28;;;;;;;3.42;1.33;;;15.00;85.30;;;;;;6244157;23;20431;-79
2021/06/06 02:26:01;;;;;;;2.03;1.23;;;15.00;85.30;;;;;;6243775;23;20008;-80
2021/06/06 02:28:59;;;;;;;1.90;1.08;;;15.10;85.40;;;;;;6242874;23;20015;-80
2021/06/06 02:31:38;;;;;;;2.03;1.17;;;15.00;85.30;;;;;;6243561;22;20023;-80
2021/06/06 02:34:26;;;;;;;2.95;1.25;;;15.00;85.20;;;;;;6248563;23;20019;-80
2021/06/06 02:36:57;;;;;;;2.83;1.65;;;15.00;85.20;;;;;;6245413;23;20022;-80
2021/06/06 02:39:27;;;;;;;2.20;1.40;;;15.00;85.30;;;;;;6242966;23;20022;-81
2021/06/06 02:42:08;;;;;;;2.03;1.40;;;15.00;85.20;;;;;;6193411;23;20016;-79
2021/06/06 02:44:49;;;;;;;;;;;15.00;85.30;;;;;;6245627;23;20008;-80
2021/06/06 02:47:22;;;;;;;1.90;1.02;;;14.90;85.10;;;;;;6242573;23;20369;-80
2021/06/06 02:49:49;;;;;;;3.00;1.60;;;14.90;85.10;;;;;;6243312;23;20013;-80
2021/06/06 02:52:38;;;;;;;3.17;1.73;;;14.90;85.20;;;;;;6244812;23;20463;-79
2021/06/06 02:55:08;;;;;;;2.67;1.55;;;14.90;85.30;;;;;;6243567;23;20024;-79
2021/06/06 02:57:35;;;;;;;3.67;1.57;;;14.90;85.30;;;;;;6243381;23;20008;-79
2021/06/06 03:00:10;;;;;;;4.20;1.80;;;15.00;85.40;;;;;;6217863;23;20026;-79
2021/06/06 03:02:40;;;;;;;3.65;1.70;;;14.80;85.30;;;;;;6246765;23;20007;-80
2021/06/06 03:05:09;;;;;;;3.25;1.98;;;14.80;85.40;;;;;;6243257;22;20012;-79
2021/06/06 03:07:40;;;;;;;3.33;1.80;;;14.80;85.30;;;;;;6217972;23;20014;-80
2021/06/06 03:10:08;;;;;;;2.30;1.20;;;14.80;85.50;;;;;;6245390;23;20444;-79
2021/06/06 03:12:36;;;;;;;1.52;1.20;;;14.80;85.50;;;;;;6217567;23;20047;-79
2021/06/06 03:15:06;;;;;;;3.47;1.83;;;14.80;85.60;;;;;;6243410;23;20027;-80
2021/06/06 03:17:37;;;;;;;1.52;1.10;;;14.80;85.50;;;;;;6244671;23;20555;-79
2021/06/06 03:20:16;;;;;;;2.10;1.25;;;14.80;85.50;;;;;;6192807;23;20004;-80
2021/06/06 03:22:44;;;;;;;1.85;0.90;;;14.80;85.50;;;;;;6190357;23;20138;-79
2021/06/06 03:25:34;;;;;;;1.67;1.00;;;14.80;85.60;;;;;;6242843;23;20365;-80
2021/06/06 03:28:00;;;;;;;2.38;1.30;;;14.80;85.60;;;;;;6244025;23;20015;-79
2021/06/06 03:30:38;;;;;;;2.53;1.48;;;14.80;85.60;;;;;;6246057;23;20008;-80
2021/06/06 03:33:09;;;;;;;2.38;1.08;;;14.80;85.60;;;;;;6244152;23;20353;-80
2021/06/06 03:35:34;;;;;;;1.50;0.98;;;14.90;85.60;;;;;;6243050;23;20016;-79
2021/06/06 03:38:00;;;;;;;2.22;1.40;;;14.80;85.40;;;;;;6191819;23;20008;-80
2021/06/06 03:40:29;;;;;;;2.67;1.42;;;14.80;85.50;;;;;;6244150;23;20016;-79
2021/06/06 03:42:55;;;;;;;3.55;2.00;;;14.90;85.50;;;;;;6242665;23;20130;-80
2021/06/06 03:45:21;;;;;;;2.53;1.58;;;14.90;85.50;;;;;;6243701;23;20023;-80
2021/06/06 03:47:47;;;;;;;6.03;2.95;;;14.80;85.40;;;;;;6244459;23;20019;-79
2021/06/06 03:50:15;;;;;;;4.38;2.38;;;14.80;85.40;;;;;;6192142;23;20019;-79
2021/06/06 03:52:41;;;;;;;4.15;2.30;;;14.80;85.50;;;;;;6246553;23;20070;-79
2021/06/06 03:55:09;;;;;;;4.63;2.30;;;14.80;86.10;;;;;;6217167;23;20020;-80
2021/06/06 03:57:35;;;;;;;4.68;1.75;;;14.80;85.50;;;;;;6215041;23;20013;-80
2021/06/06 04:00:05;;;;;;;3.22;1.80;;;14.80;85.50;;;;;;6241785;23;20059;-80
2021/06/06 04:02:31;;;;;;;3.05;1.70;;;14.80;85.50;;;;;;6244745;23;20028;-79
2021/06/06 04:04:56;;;;;;;2.60;1.50;;;14.80;85.40;;;;;;6245245;23;20001;-80
2021/06/06 04:07:22;;;;;;;3.95;1.75;;;14.90;85.50;;;;;;6241946;23;20058;-79
2021/06/06 04:09:48;;;;;;;3.75;1.85;;;14.80;85.50;;;;;;6218290;23;20015;-79
2021/06/06 04:12:14;;;;;;;2.67;1.80;;;14.90;85.50;;;;;;6245687;23;20003;-80
2021/06/06 04:14:39;;;;;;;3.65;1.95;;;14.80;85.40;;;;;;6244001;23;20027;-79
2021/06/06 04:17:05;;;;;;;2.70;1.63;;;14.90;85.40;;;;;;6244203;23;20505;-80
2021/06/06 04:19:31;;;;;;;4.47;2.10;;;14.80;85.50;;;;;;6217291;23;20019;-80
2021/06/06 04:21:57;;;;;;;2.92;1.77;;;14.90;85.50;;;;;;6242499;23;20011;-79
2021/06/06 04:24:22;;;;;;;4.72;2.28;;;14.80;85.40;;;;;;6243949;23;20448;-80
2021/06/06 04:26:49;;;;;;;3.58;2.00;;;14.80;85.40;;;;;;6240655;23;20013;-80
2021/06/06 04:29:14;;;;;;;3.33;2.00;;;14.80;85.40;;;;;;6243956;23;20091;-80
2021/06/06 04:31:40;;;;;;;5.28;2.15;;;14.80;85.50;;;;;;6243105;23;20439;-79
2021/06/06 04:34:06;;;;;;;3.63;2.13;;;14.80;85.60;;;;;;6244028;23;20051;-80
2021/06/06 04:36:32;;;;;;;2.85;1.60;;;14.80;85.60;;;;;;6217062;23;20012;-80
2021/06/06 04:38:57;;;;;;;2.10;1.40;;;14.80;85.60;;;;;;6216899;23;20024;-79
2021/06/06 04:41:23;;;;;;;3.15;1.77;;;14.70;85.70;;;;;;6216999;23;20011;-80
2021/06/06 04:43:49;;;;;;;3.22;1.70;;;14.70;85.60;;;;;;6217554;23;20004;-80
2021/06/06 04:46:15;;;;;;;3.33;1.63;;;14.70;85.80;;;;;;6242321;23;20008;-79
2021/06/06 04:48:44;;;;;;;3.35;1.75;;;14.70;85.80;;;;;;6216786;23;20009;-80
2021/06/06 04:51:13;;;;;;;2.25;1.20;;;14.70;85.80;;;;;;6244317;23;20016;-79
2021/06/06 04:53:39;;;;;;;2.25;1.40;;;14.70;85.80;;;;;;6244187;23;20016;-79
2021/06/06 04:56:05;;;;;;;2.15;1.42;;;14.70;85.80;;;;;;6242461;23;19996;-81
2021/06/06 04:58:32;;;;;;;2.70;1.58;;;14.60;85.70;;;;;;6216654;23;20062;-80
2021/06/06 05:00:58;;;;;;;2.55;1.40;;;14.70;85.70;;;;;;6244108;23;20001;-80
2021/06/06 05:03:24;;;;;;;2.10;1.30;;;14.70;85.80;;;;;;6242098;23;20004;-80
2021/06/06 05:05:50;;;;;;;2.92;1.40;;;14.70;85.90;;;;;;6214566;23;20112;-80
2021/06/06 05:08:19;;;;;;;2.25;1.40;;;14.70;85.90;;;;;;6242239;23;20458;-80
2021/06/06 05:10:46;;;;;;;2.10;1.25;;;14.70;86.00;;;;;;6216649;23;20008;-80
2021/06/06 05:13:13;;;;;;;1.90;1.27;;;14.70;86.00;;;;;;6218309;23;20008;-80
2021/06/06 05:15:40;;;;;;;2.13;1.25;;;14.70;86.00;;;;;;6192955;23;20008;-81
2021/06/06 05:18:07;;;;;;;2.08;1.25;;;14.70;86.10;;;;;;6243320;23;20008;-80
2021/06/06 05:20:39;;;;;;;2.78;1.52;;;14.70;86.10;;;;;;6243192;23;20051;-81
2021/06/06 05:23:06;;;;;;;3.63;1.58;;;14.70;86.10;;;;;;6245013;23;20042;-80
2021/06/06 05:25:34;;;;;;;2.15;1.38;;;14.70;86.10;;;;;;6245077;23;20035;-80
2021/06/06 05:28:00;;;;;;;1.73;1.13;;;14.70;86.10;;;;;;6245576;23;20329;-80
2021/06/06 05:30:30;;;;;;;2.10;1.35;;;14.70;86.10;;;;;;6243240;23;20440;-80
2021/06/06 05:32:56;;;;;;;1.58;1.20;;;14.70;86.20;;;;;;6245617;23;20325;-80
2021/06/06 05:35:24;;;;;;;2.20;1.20;;;14.70;86.10;;;;;;6244626;23;20079;-80
2021/06/06 05:37:51;;;;;;;2.05;1.10;;;14.80;86.10;;;;;;6218162;23;20000;-80
2021/06/06 05:40:17;;;;;;;1.80;1.10;;;14.80;86.10;;;;;;6218126;23;20015;-80
2021/06/06 05:42:44;;;;;;;2.63;1.20;;;14.80;86.00;;;;;;6218177;23;19996;-80
2021/06/06 05:45:12;;;;;;;2.28;1.40;;;14.90;86.10;;;;;;6244033;23;20317;-80
2021/06/06 05:47:38;;;;;;;2.22;1.40;;;14.80;86.00;;;;;;6243661;23;20011;-80
2021/06/06 05:50:04;;;;;;;2.55;1.30;;;14.80;86.00;;;;;;6218622;23;20004;-80
2021/06/06 05:52:32;;;;;;;1.83;1.25;;;14.90;86.00;;;;;;6218139;23;20008;-81
2021/06/06 05:54:59;;;;;;;2.58;1.50;;;14.80;85.90;;;;;;6244083;23;20001;-80
2021/06/06 05:57:25;;;;;;;2.65;1.23;;;14.90;85.90;;;;;;6244515;23;20008;-79
2021/06/06 05:59:50;;;;;;;2.05;1.20;;;14.90;85.90;;;;;;6244605;23;20018;-80
2021/06/06 06:02:16;;;;;;;2.17;1.00;;;14.90;85.80;;;;;;6243123;22;20008;-80
2021/06/06 06:04:42;;;;;;;2.53;1.17;;;15.00;85.90;;;;;;6245483;23;20027;-80
2021/06/06 06:07:08;;;;;;;2.33;1.33;;;15.00;85.90;;;;;;6243397;22;20028;-79
2021/06/06 06:09:34;;;;;;;3.10;1.63;;;15.00;85.90;;;;;;6217724;23;20087;-80
2021/06/06 06:11:59;;;;;;;2.28;1.30;;;14.90;85.90;;;;;;6217889;23;20008;-80
2021/06/06 06:14:26;;;;;;;1.77;1.30;;;14.90;85.90;;;;;;6212903;23;20105;-80
2021/06/06 06:16:52;;;;;;;3.25;1.30;;;15.00;86.00;;;;;;6218011;23;20008;-80
2021/06/06 06:19:18;;;;;;;3.25;1.50;;;15.00;86.10;;;;;;6244449;23;20020;-80
2021/06/06 06:21:45;;;;;;;2.28;1.58;;;15.00;86.00;;;;;;6215770;23;20016;-79
2021/06/06 06:24:11;;;;;;;2.22;1.30;;;15.00;86.00;;;;;;6217200;23;20061;-79
2021/06/06 06:26:38;;;;;;;2.05;1.17;;;15.00;86.10;;;;;;6217561;23;20023;-79
2021/06/06 06:29:05;;;;;;;1.98;1.17;;;15.10;86.10;;;;;;6217589;23;20004;-79
2021/06/06 06:31:31;;;;;;;1.55;1.00;;;15.10;86.00;;;;;;6245063;23;20008;-80
2021/06/06 06:33:57;;;;;;;1.52;1.08;;;15.10;86.00;;;;;;6243177;23;20015;-79
2021/06/06 06:36:23;;;;;;;0.98;0.80;;;15.10;86.00;;;;;;6243162;23;20009;-80
2021/06/06 06:38:51;;;;;;;2.50;1.50;;;15.20;86.00;;;;;;6244700;23;20000;-80
2021/06/06 06:41:20;;;;;;;3.70;1.67;;;15.10;85.90;;;;;;6244787;23;20000;-80
2021/06/06 06:43:45;;;;;;;2.55;1.60;;;15.20;85.90;;;;;;6213330;23;20084;-80
2021/06/06 06:46:12;;;;;;;2.60;1.58;;;15.20;85.90;;;;;;6244996;23;20031;-79
2021/06/06 06:48:39;;;;;;;2.50;1.48;;;15.30;85.90;;;;;;6243230;22;20456;-80
2021/06/06 06:51:05;;;;;;;3.45;1.30;;;15.30;86.50;;;;;;6241108;23;20013;-79
2021/06/06 06:53:31;;;;;;;2.03;1.55;;;15.40;85.80;;;;;;6218054;23;20084;-80
2021/06/06 06:55:56;;;;;;;2.33;1.52;;;15.40;85.70;;;;;;6245104;23;20031;-79
2021/06/06 06:58:22;;;;;;;2.40;1.65;;;15.40;86.30;;;;;;6242855;23;20066;-80
2021/06/06 07:00:51;;;;;;;3.83;2.13;;;15.50;85.60;;;;;;6217469;23;20004;-80
2021/06/06 07:03:22;;;;;;;2.65;1.55;;;15.60;85.50;;;;;;6244450;23;20008;-80
2021/06/06 07:05:48;;;;;;;3.55;2.00;;;15.60;85.30;;;;;;6244778;23;20019;-80
2021/06/06 07:08:18;;;;;;;4.28;2.25;;;15.70;85.10;;;;;;6242709;22;20008;-80
2021/06/06 07:10:44;;;;;;;4.93;2.50;;;15.70;85.00;;;;;;6242829;23;20016;-80
2021/06/06 07:13:10;;;;;;;3.60;1.75;;;15.70;84.90;;;;;;6242985;23;20374;-79
2021/06/06 07:15:37;;;;;;;3.15;1.70;;;15.70;84.90;;;;;;6217509;23;20340;-80
2021/06/06 07:18:04;;;;;;;3.75;1.77;;;15.80;84.90;;;;;;6215174;23;20008;-80
2021/06/06 07:20:35;;;;;;;3.58;1.98;;;15.80;84.80;;;;;;6243230;23;20436;-80
2021/06/06 07:23:03;;;;;;;3.17;2.10;;;15.90;84.90;;;;;;6245059;23;20497;-81
2021/06/06 07:25:29;;;;;;;2.95;1.80;;;15.90;84.80;;;;;;6243736;23;20000;-81
2021/06/06 07:27:56;;;;;;;4.93;2.40;;;16.00;84.70;;;;;;6242944;23;20011;-80
2021/06/06 07:30:26;;;;;;;3.75;2.10;;;15.90;84.50;;;;;;6242784;22;20016;-82
2021/06/06 07:32:53;;;;;;;2.73;1.73;;;15.90;84.50;;;;;;6190883;23;20032;-80
2021/06/06 07:35:24;;;;;;;3.05;2.10;;;16.00;84.60;;;;;;6244124;23;20436;-82
2021/06/06 07:37:49;;;;;;;2.58;1.60;;;16.00;84.60;;;;;;6245237;23;20050;-80
2021/06/06 07:40:16;;;;;;;1.40;1.30;;;16.10;84.60;;;;;;6242806;22;20066;-80
2021/06/06 07:42:42;;;;;;;2.92;1.85;;;16.10;84.40;;;;;;6217420;23;20047;-79
2021/06/06 07:45:11;;;;;;;1.77;1.30;;;16.20;84.40;;;;;;6244142;23;20008;-80
2021/06/06 07:47:40;;;;;;;3.03;1.92;;;16.20;84.20;;;;;;6217763;23;20008;-81
2021/06/06 07:50:24;;;;;;;2.13;1.60;;;16.20;84.10;;;;;;6244259;23;20015;-80
2021/06/06 07:52:50;;;;;;;2.28;1.50;;;16.20;84.10;;;;;;6217302;23;20012;-80
2021/06/06 07:55:19;;;;;;;2.33;1.30;;;16.20;84.10;;;;;;6242503;23;20094;-78
2021/06/06 07:57:45;;;;;;;1.63;1.10;;;16.20;84.10;;;;;;6192981;23;20394;-79
2021/06/06 08:00:15;;;;;;;3.58;1.73;;;16.20;84.10;;;;;;6242957;23;20032;-80
2021/06/06 08:02:41;;;;;;;3.08;1.70;;;16.30;84.10;;;;;;6217476;23;20008;-79
2021/06/06 08:05:09;;;;;;;2.00;1.25;;;16.30;84.10;;;;;;6243482;22;20082;-77
2021/06/06 08:07:35;;;;;;;2.17;1.58;;;16.30;84.10;;;;;;6242692;23;20438;-78
2021/06/06 08:10:02;;;;;;;2.22;1.33;;;16.30;84.00;;;;;;6217043;23;20833;-78
2021/06/06 08:12:27;;;;;;;2.03;1.38;;;16.40;84.00;;;;;;6243771;23;20012;-77
2021/06/06 08:14:54;;;;;;;2.25;1.63;;;16.40;83.80;;;;;;6213101;23;20020;-78
2021/06/06 08:17:21;;;;;;;2.25;1.63;;;16.50;83.70;;;;;;6218297;23;20119;-79
2021/06/06 08:19:47;;;;;;;2.40;1.52;;;16.50;84.10;;;;;;6242319;23;20115;-77
2021/06/06 08:22:14;;;;;;;2.08;1.35;;;16.60;83.40;;;;;;6243798;23;20440;-76
2021/06/06 08:24:40;;;;;;;1.30;1.20;;;16.70;83.30;;;;;;6238087;23;20009;-75
2021/06/06 08:27:07;;;;;;;1.63;1.42;;;16.80;83.30;;;;;;6242304;22;20329;-78
2021/06/06 08:29:33;;;;;;;1.90;1.20;;;16.80;83.10;;;;;;6242289;22;20012;-76
2021/06/06 08:32:01;;;;;;;1.48;1.15;;;16.80;83.00;;;;;;6216807;23;20004;-78
2021/06/06 08:34:28;;;;;;;1.92;1.40;;;16.90;83.00;;;;;;6192848;23;20034;-75
2021/06/06 08:36:57;;;;;;;2.05;1.35;;;17.00;82.80;;;;;;6192021;23;20015;-76
2021/06/06 08:39:29;;;;;;;1.88;1.35;;;17.00;82.60;;;;;;6243817;23;20062;-77
2021/06/06 08:42:18;;;;;;;1.98;1.20;;;17.00;82.70;;;;;;6242131;23;20344;-76
2021/06/06 08:44:57;;;;;;;2.30;1.15;;;17.00;82.70;;;;;;6242357;23;20019;-78
2021/06/06 08:47:27;;;;;;;1.98;1.27;;;17.10;82.60;;;;;;6217678;23;20004;-78
2021/06/06 08:50:00;;;;;;;1.67;1.20;;;17.10;82.70;;;;;;6215876;23;20043;-81
2021/06/06 08:52:43;;;;;;;1.05;1.00;;;17.10;82.50;;;;;;6180530;23;20017;-79
2021/06/06 08:55:30;;;;;;;1.55;1.17;;;17.20;82.50;;;;;;6182171;23;20087;-77
2021/06/06 08:58:24;;;;;;;1.40;1.10;;;17.40;82.20;;;;;;6110565;23;20480;-77
2021/06/06 09:00:57;;;;;;;1.00;1.00;;;17.50;81.70;;;;;;6134905;23;20016;-78
2021/06/06 09:03:26;;;;;;;1.60;1.00;;;17.60;81.60;;;;;;6156433;23;20040;-79
2021/06/06 09:06:00;;;;;;;1.70;1.30;;;17.70;81.50;;;;;;6132420;23;20071;-80
2021/06/06 09:08:29;;;;;;;1.17;1.08;;;17.80;81.20;;;;;;6157213;23;20006;-79
2021/06/06 09:10:59;;;;;;;1.20;1.10;;;18.00;81.00;;;;;;6108759;23;20020;-78
2021/06/06 09:13:27;;;;;;;1.48;1.15;;;18.10;80.90;;;;;;6182279;23;20017;-78
2021/06/06 09:16:17;;;;;;;1.33;1.17;;;18.10;80.60;;;;;;6159883;23;20017;-80
2021/06/06 09:18:47;;;;;;;1.33;1.23;;;18.20;80.50;;;;;;6243604;23;20004;-78
2021/06/06 09:21:22;;;;;;;1.20;1.10;;;18.30;80.50;;;;;;6243496;23;20234;-79
2021/06/06 09:23:51;;;;;;;1.45;1.20;;;18.30;80.30;;;;;;6243569;23;20004;-79
2021/06/06 09:26:25;;;;;;;1.38;1.05;;;18.30;80.10;;;;;;6216194;23;20004;-78
2021/06/06 09:29:18;;;;;;;1.52;1.08;;;18.40;80.10;;;;;;6244849;23;20032;-78
2021/06/06 09:31:44;;;;;;;1.15;1.00;;;18.40;80.20;;;;;;6244894;23;20012;-79
2021/06/06 09:34:19;;;;;;;1.70;1.30;;;18.40;80.10;;;;;;6217641;23;20099;-79
2021/06/06 09:37:03;;;;;;;3.33;1.63;;;18.40;80.30;;;;;;6218135;23;20004;-82
2021/06/06 09:39:37;;;;;;;1.67;1.27;;;18.40;80.20;;;;;;6245653;23;20008;-78
2021/06/06 09:42:20;;;;;;;1.35;1.15;;;18.40;80.30;;;;;;6243739;23;20010;-79
2021/06/06 09:44:46;;;;;;;1.58;1.30;;;18.50;79.90;;;;;;6244867;22;20012;-80
2021/06/06 09:47:15;;;;;;;1.35;1.02;;;18.50;79.90;;;;;;6243793;23;20018;-78
2021/06/06 09:49:45;;;;;;;1.10;1.00;;;18.60;80.00;;;;;;6242968;23;20050;-78
2021/06/06 09:52:16;;;;;;;1.55;0.95;;;18.80;79.90;;;;;;6243836;23;20012;-79
2021/06/06 09:54:45;;;;;;;;;;;18.90;79.70;;;;;;6244739;23;20044;-79
2021/06/06 09:57:31;;;;;;;1.00;0.73;;;18.90;79.40;;;;;;6217996;23;19915;-77
2021/06/06 10:00:11;;;;;;;1.75;1.02;;;19.10;79.20;;;;;;6217588;23;20022;-77
2021/06/06 10:02:41;;;;;;;1.00;0.90;;;19.10;79.10;;;;;;6244653;23;20011;-81
2021/06/06 10:05:18;;;;;;;0.70;0.70;;;19.20;79.00;;;;;;6244962;23;20054;-77
2021/06/06 10:08:09;;;;;;;0.82;0.82;;;19.20;78.70;;;;;;6243668;23;20014;-77
2021/06/06 10:10:40;;;;;;;1.08;0.98;;;19.20;78.90;;;;;;6244862;23;20000;-78
2021/06/06 10:13:08;;;;;;;;;;;19.20;78.90;;;;;;6218337;23;20027;-78
2021/06/06 10:15:49;;;;;;;0.95;0.70;;;19.30;79.00;;;;;;6192447;23;19907;-78
2021/06/06 10:18:25;;;;;;;0.73;0.70;;;19.40;79.10;;;;;;6243206;23;20031;-79
2021/06/06 10:20:58;;;;;;;0.90;0.80;;;19.60;78.80;;;;;;6243009;23;20331;-80
2021/06/06 10:23:31;;;;;;;0.82;0.82;;;19.70;78.40;;;;;;6244604;23;20008;-79
2021/06/06 10:26:37;;;;;;;0.98;0.77;;;19.80;78.10;;;;;;6192469;23;20015;-79
2021/06/06 10:29:10;;;;;;;0.70;0.70;;;19.90;77.80;;;;;;6217134;23;20054;-77
2021/06/06 10:31:40;;;;;;;1.30;1.02;;;20.00;78.00;;;;;;6190176;23;20017;-77
2021/06/06 10:34:32;;;;;;;1.05;0.90;;;20.00;77.70;;;;;;6244986;23;20004;-77
2021/06/06 10:36:58;;;;;;;2.00;1.10;;;20.10;77.70;;;;;;6243548;23;20004;-78
2021/06/06 10:39:28;;;;;;;0.88;0.73;;;20.20;77.50;;;;;;6244966;23;20028;-78
2021/06/06 10:42:01;;;;;;;1.00;0.75;;;20.20;77.50;;;;;;6217757;23;20011;-78
2021/06/06 10:44:33;;;;;;;0.65;0.63;;;20.30;77.40;;;;;;6243409;23;20392;-77
2021/06/06 10:47:11;;;;;;;1.02;0.85;;;20.20;77.40;;;;;;6244502;23;20078;-79
2021/06/06 10:49:50;;;;;;;0.63;0.63;;;20.30;77.50;;;;;;6244363;23;20436;-79
2021/06/06 10:52:28;;;;;;;0.90;0.65;;;20.40;77.40;;;;;;6242990;23;20573;-79
2021/06/06 10:54:59;;;;;;;0.70;0.70;;;20.40;77.40;;;;;;6242890;22;20083;-78
2021/06/06 10:57:33;;;;;;;1.25;1.10;;;20.40;77.40;;;;;;6242901;23;20034;-79
2021/06/06 11:00:21;;;;;;;1.02;0.93;;;20.30;77.30;;;;;;6242905;23;20099;-78
2021/06/06 11:02:56;;;;;;;1.42;1.20;;;20.30;77.50;;;;;;6216444;23;20096;-80
2021/06/06 11:05:45;;;;;;;0.90;0.85;;;20.30;77.40;;;;;;6242830;23;20412;-80
2021/06/06 11:08:39;;;;;;;2.15;1.20;;;20.40;77.50;;;;;;6243960;23;20008;-79
2021/06/06 11:11:17;;;;;;;1.13;0.98;;;20.30;77.40;;;;;;6192177;23;20034;-79
2021/06/06 11:13:47;;;;;;;1.42;1.00;;;20.30;77.40;;;;;;6244678;23;20083;-79
2021/06/06 11:16:28;;;;;;;1.23;0.95;;;20.40;77.30;;;;;;6240283;23;20015;-78
2021/06/06 11:18:59;;;;;;;1.00;0.90;;;20.40;77.00;;;;;;6218011;23;20000;-78
2021/06/06 11:21:42;;;;;;;1.63;1.23;;;20.50;76.90;;;;;;6217790;23;20308;-79
2021/06/06 11:24:44;;;;;;;0.88;0.88;;;20.60;76.80;;;;;;6242967;23;20012;-79
2021/06/06 11:27:33;;;;;;;1.08;0.93;;;20.70;76.50;;;;;;6243533;23;20008;-78
2021/06/06 11:30:29;;;;;;;0.88;0.73;;;20.90;76.30;;;;;;6217587;23;20023;-80
2021/06/06 11:33:03;;;;;;;1.60;0.88;;;21.00;76.00;;;;;;6244244;23;20340;-78
2021/06/06 11:35:48;;;;;;;1.85;0.80;;;21.20;75.50;;;;;;6242360;23;20004;-79
2021/06/06 11:38:36;;;;;;;1.50;0.93;;;21.20;75.20;;;;;;6243248;23;20000;-79
2021/06/06 11:41:24;;;;;;;1.90;0.95;;;21.20;75.40;;;;;;6244782;23;20046;-79
2021/06/06 11:44:12;;;;;;;0.82;0.80;;;21.30;75.50;;;;;;6244364;23;20015;-79
2021/06/06 11:46:42;;;;;;;0.77;0.70;;;21.30;75.40;;;;;;6242247;23;20016;-78
2021/06/06 11:49:34;;;;;;;1.30;0.73;;;21.40;75.40;;;;;;6244725;23;20047;-79
2021/06/06 11:52:26;;;;;;;1.50;0.60;;;21.40;75.40;;;;;;6245404;23;20027;-79
2021/06/06 11:54:57;;;;;;;1.17;0.90;;;21.40;75.30;;;;;;6244609;23;20083;-80
2021/06/06 11:57:32;;;;;;;0.80;0.80;;;21.50;75.00;;;;;;6244944;23;20016;-78
2021/06/06 12:00:36;;;;;;;0.90;0.88;;;21.60;75.00;;;;;;6244505;23;20015;-79
2021/06/06 12:03:18;;;;;;;0.85;0.73;;;21.60;74.50;;;;;;6244928;23;20007;-79
2021/06/06 12:06:03;;;;;;;1.08;0.80;;;21.60;74.70;;;;;;6245101;23;20004;-78
2021/06/06 12:08:35;;;;;;;1.58;1.15;;;21.70;74.60;;;;;;6243024;23;20036;-81
2021/06/06 12:11:07;;;;;;;0.80;0.80;;;21.80;74.20;;;;;;6240288;23;20020;-78
2021/06/06 12:13:38;;;;;;;1.10;0.90;;;21.80;74.20;;;;;;6240674;22;20009;-84
2021/06/06 12:16:12;;;;;;;0.80;0.80;;;21.90;74.00;;;;;;6194185;23;20031;-77
2021/06/06 12:18:41;;;;;;;0.80;0.80;;;21.90;73.90;;;;;;6245715;23;20015;-78
2021/06/06 12:21:19;;;;;;;1.27;0.88;;;22.00;73.90;;;;;;6241647;23;20463;-78
2021/06/06 12:23:49;;;;;;;0.50;0.50;;;22.00;73.90;;;;;;6244261;23;20085;-78
2021/06/06 12:26:29;;;;;;;0.65;0.65;;;21.90;73.80;;;;;;6217186;23;20387;-77
2021/06/06 12:28:57;;;;;;;0.95;0.63;;;22.00;74.00;;;;;;6244051;23;20020;-78
2021/06/06 12:31:38;;;;;;;0.77;0.77;;;21.90;74.00;;;;;;6243981;23;20008;-78
2021/06/06 12:34:26;;;;;;;0.65;0.63;;;22.10;74.10;;;;;;6217456;23;20008;-78
2021/06/06 12:37:00;;;;;;;0.60;0.60;;;22.30;73.50;;;;;;6242520;23;20000;-78
2021/06/06 12:39:26;;;;;;;0.50;0.50;;;22.30;73.20;;;;;;6242521;23;20131;-78
2021/06/06 12:41:54;;;;;;;0.60;0.60;;;22.20;73.10;;;;;;6244107;23;20004;-78
2021/06/06 12:44:27;;;;;;;0.75;0.75;;;22.30;73.10;;;;;;6217020;23;19997;-78
2021/06/06 12:46:56;;;;;;;0.50;0.50;;;22.40;72.70;;;;;;6244362;23;20066;-78
2021/06/06 12:49:35;;;;;;;0.65;0.65;;;22.40;72.60;;;;;;6244174;23;20153;-79
2021/06/06 12:52:20;;;;;;;0.63;0.60;;;22.30;72.70;;;;;;6217000;23;20008;-79
2021/06/06 12:54:46;;;;;;;0.52;0.52;;;22.40;72.70;;;;;;6242569;22;20004;-78
2021/06/06 12:57:19;;;;;;;0.73;0.65;;;22.40;72.50;;;;;;6244301;23;20015;-78
2021/06/06 12:59:45;;;;;;;0.70;0.70;;;22.30;72.50;;;;;;6242128;23;20528;-77
2021/06/06 13:02:32;;;;;;;0.55;0.55;;;22.20;72.70;;;;;;6244240;23;20087;-78
2021/06/06 13:05:03;;;;;;;0.80;0.80;;;22.20;72.50;;;;;;6243220;23;20024;-77
2021/06/06 13:07:34;;;;;;;0.75;0.75;;;22.20;72.60;;;;;;6244184;23;20055;-78
2021/06/06 13:10:01;;;;;;;0.70;0.63;;;22.20;72.60;;;;;;6241925;23;20400;-78